Flight Track Log - Related Links

Times and Time Zones

All times are in EDT time to prevent confusion due to time zone crossing. See the EJA922 flight status page for this flight to view local times or setup timezone preferences in your user account.

Time Position Orientation Groundspeed Altitude Reporting Facility
EDT Latitude Longitude Course Direction KTS MPH feet Rate Location/Type
Thu 10:14:30 AM 35.6442 -106.0703 265° West 209 241 7,300  Level Albuquerque Center
Thu 10:15:31 AM 35.6817 -106.1228 311° West 233 268 10,800 2,634 Climbing Albuquerque Center
Thu 10:16:33 AM 35.6736 -106.2056 263° West 244 281 12,700 1,645 Climbing Albuquerque Center
Thu 10:17:35 AM 35.6664 -106.3100 265° West 296 341 14,200 1,452 Climbing Albuquerque Center
Thu 10:18:37 AM 35.6597 -106.4283 266° West 335 386 15,700 1,415 Climbing Albuquerque Center
Thu 10:19:00 AM 35.5602 -107.2416 265° West  Level FlightAware Approximate
Thu 10:19:38 AM 35.6506 -106.5514 265° West 355 409 17,100  Level Albuquerque Center
Thu 10:20:40 AM 35.6406 -106.7053 265° West 375 432 18,800 1,742 Climbing Albuquerque Center
Thu 10:21:42 AM 35.6311 -106.8325 265° West 379 436 20,700 1,790 Climbing Albuquerque Center
Thu 10:22:44 AM 35.6222 -106.9678 265° West 372 428 22,500 1,707 Climbing Albuquerque Center
Thu 10:23:45 AM 35.6142 -107.0936 266° West 372 428 24,200 1,610 Climbing Albuquerque Center
Thu 10:24:47 AM 35.6053 -107.2303 265° West 376 433 25,800 1,403 Climbing Albuquerque Center
Thu 10:25:49 AM 35.5969 -107.3536 265° West 377 434 27,100 1,258 Climbing Albuquerque Center
Thu 10:26:51 AM 35.5867 -107.4792 264° West 383 441 28,400 1,366 Climbing Albuquerque Center
Thu 10:27:52 AM 35.5769 -107.6267 265° West 387 445 29,900 1,463 Climbing Albuquerque Center
Thu 10:28:54 AM 35.5669 -107.7503 264° West 384 442 31,400 1,500 Climbing Albuquerque Center
Thu 10:29:56 AM 35.5692 -107.8956 271° West 387 445 33,000 1,548 Climbing Albuquerque Center
Thu 10:30:58 AM 35.6253 -108.0108 301° West 410 472 34,600 1,742 Climbing Albuquerque Center
Thu 10:32:00 AM 35.6928 -108.1397 303° West 404 465 36,600 1,805 Climbing Albuquerque Center
Thu 10:33:01 AM 35.7492 -108.2514 302° West 402 463 38,300 1,415 Climbing Albuquerque Center
Thu 10:34:03 AM 35.8150 -108.3800 302° West 398 458 39,500 823 Climbing Albuquerque Center
Thu 10:35:05 AM 35.8719 -108.4933 302° West 403 464 40,000 242 Climbing Albuquerque Center
Thu 10:36:07 AM 35.9361 -108.6214 302° West 423 487 40,000  Level Albuquerque Center
Thu 10:37:09 AM 36.0031 -108.7536 302° West 446 513 40,000  Level Albuquerque Center
Thu 10:38:11 AM 36.0694 -108.8906 301° West 461 531 40,000  Level Albuquerque Center
Thu 10:39:15 AM 36.1517 -109.0575 301° West 468 539 40,000  Level Denver Center
Thu 10:40:17 AM 36.2164 -109.1867 302° West 463 533 40,000  Level Denver Center
Thu 10:41:19 AM 36.2783 -109.3117 302° West 448 516 40,000  Level Denver Center
Thu 10:42:21 AM 36.3494 -109.4575 301° West 442 509 40,000  Level Denver Center
Thu 10:43:23 AM 36.4119 -109.5828 302° West 445 512 40,000  Level Denver Center
Thu 10:44:25 AM 36.4847 -109.7322 301° West 453 521 40,000  Level Denver Center
Thu 10:45:27 AM 36.5475 -109.8600 301° West 452 520 40,000  Level Denver Center
Thu 10:46:29 AM 36.6203 -110.0111 301° West 454 522 40,000  Level Denver Center
Thu 10:47:31 AM 36.6872 -110.1517 301° West 454 522 40,000  Level Denver Center
Thu 10:48:33 AM 36.7514 -110.2858 301° West 452 520 40,000  Level Denver Center
Thu 10:49:35 AM 36.8167 -110.4206 301° West 454 522 40,000  Level Denver Center
Thu 10:50:37 AM 36.8814 -110.5586 300° West 460 529 40,000  Level Denver Center
Thu 10:51:39 AM 36.9469 -110.6964 301° West 463 533 40,000  Level Denver Center
Thu 10:52:41 AM 37.0256 -110.8642 300° West 467 537 40,000  Level Denver Center
Thu 10:53:43 AM 37.0914 -111.0022 301° West 464 534 40,000  Level Denver Center
Thu 10:54:45 AM 37.1547 -111.1408 300° West 461 531 40,000  Level Denver Center
Thu 10:55:47 AM 37.2200 -111.2786 301° West 460 529 40,000  Level Denver Center
Thu 10:56:50 AM 37.2847 -111.4172 300° West 461 531 40,000  Level Denver Center
Thu 10:57:52 AM 37.3478 -111.5547 300° West 456 525 40,000  Level Denver Center
Thu 10:58:54 AM 37.4233 -111.7194 300° West 454 522 40,000  Level Denver Center
Thu 10:59:56 AM 37.4867 -111.8564 300° West 455 524 40,000  Level Denver Center
Thu 11:00:58 AM 37.5486 -111.9928 300° West 451 519 40,000  Level Denver Center
Thu 11:02:00 AM 37.6100 -112.1281 300° West 448 516 40,000  Level Denver Center
Thu 11:03:02 AM 37.6722 -112.2639 300° West 448 516 40,000  Level Denver Center
Thu 11:04:10 AM 37.7267 -112.4353 292° West 444 511 40,000  Level Salt Lake Center
Thu 11:05:12 AM 37.7669 -112.5817 289° West 445 512 40,000  Level Salt Lake Center
Thu 11:06:14 AM 37.8156 -112.7561 289° West 445 512 40,000  Level Salt Lake Center
Thu 11:07:16 AM 37.8556 -112.9033 289° West 449 517 40,000  Level Salt Lake Center
Thu 11:08:18 AM 37.8950 -113.0514 289° West 450 518 40,000  Level Salt Lake Center
Thu 11:09:20 AM 37.9358 -113.2008 289° West 452 520 40,000  Level Salt Lake Center
Thu 11:10:22 AM 37.9761 -113.3497 289° West 450 518 40,000  Level Salt Lake Center
Thu 11:11:24 AM 38.0236 -113.5286 289° West 449 517 40,000  Level Salt Lake Center
Thu 11:12:27 AM 38.0631 -113.6767 289° West 446 513 40,000  Level Salt Lake Center
Thu 11:13:29 AM 38.1019 -113.8242 289° West 444 511 40,000  Level Salt Lake Center
Thu 11:14:31 AM 38.1414 -113.9708 289° West 442 509 40,000  Level Salt Lake Center
Thu 11:15:33 AM 38.1794 -114.1194 288° West 442 509 40,000  Level Salt Lake Center
Thu 11:16:35 AM 38.2164 -114.2675 288° West 442 509 40,000  Level Salt Lake Center
Thu 11:17:37 AM 38.2339 -114.4517 277° West 439 505 40,000  Level Salt Lake Center
Thu 11:18:39 AM 38.2467 -114.6047 276° West 437 503 40,000  Level Salt Lake Center
Thu 11:19:41 AM 38.2608 -114.7581 277° West 438 504 40,000  Level Salt Lake Center
Thu 11:20:43 AM 38.2739 -114.9100 276° West 433 498 40,000  Level Salt Lake Center
Thu 11:21:45 AM 38.2883 -115.0631 277° West 437 503 40,000  Level Salt Lake Center
Thu 11:22:47 AM 38.3017 -115.2169 276° West 439 505 40,000  Level Salt Lake Center
Thu 11:23:49 AM 38.3161 -115.3961 276° West 440 506 40,000  Level Salt Lake Center
Thu 11:24:51 AM 38.3286 -115.5506 276° West 439 505 40,000 -242 Level Salt Lake Center
Thu 11:25:53 AM 38.3408 -115.7056 276° West 440 506 39,500 -968 Descending Salt Lake Center
Thu 11:26:55 AM 38.3525 -115.8583 276° West 436 502 38,000 -1,597 Descending Salt Lake Center
Thu 11:27:57 AM 38.3669 -116.0453 276° West 440 506 36,200 -1,645 Descending Salt Lake Center
Thu 11:28:59 AM 38.3800 -116.1983 276° West 437 503 34,600 -1,500 Descending Salt Lake Center
Thu 11:30:01 AM 38.3911 -116.3481 275° West 429 494 33,100 -1,452 Descending Salt Lake Center
Thu 11:31:03 AM 38.4019 -116.4969 275° West 425 489 31,600 -1,452 Descending Salt Lake Center
Thu 11:32:05 AM 38.4144 -116.6442 276° West 422 486 30,100 -1,446 Descending Salt Lake Center
Thu 11:32:55 AM 38.4233 -116.7656 275° West 428 493 28,900 -1,125 Descending Oakland Center
Thu 11:33:57 AM 38.4367 -116.9492 275° West 436 502 28,000 -439 Descending Oakland Center
Thu 11:34:58 AM 38.4475 -117.1014 275° West 435 501 28,000 -639 Level Oakland Center
Thu 11:35:59 AM 38.4578 -117.2536 275° West 437 503 26,700 -1,512 Descending Oakland Center
Thu 11:37:01 AM 38.4686 -117.3961 276° West 414 476 24,900 -1,854 Descending Oakland Center
Thu 11:38:02 AM 38.4772 -117.5369 275° West 403 464 22,900 -2,049 Descending Oakland Center
Thu 11:39:04 AM 38.4875 -117.6819 275° West 411 473 20,700 -2,293 Descending Oakland Center
Thu 11:40:05 AM 38.4956 -117.8183 274° West 395 455 18,200 -2,311 Descending Oakland Center
Thu 11:41:06 AM 38.5047 -117.9714 274° West 370 426 16,000 -1,756 Descending Oakland Center
Thu 11:42:08 AM 38.5086 -118.0786 273° West 314 361 14,600 -1,854 Descending Oakland Center
Thu 11:43:09 AM 38.5114 -118.1900 272° West 311 358 12,200 -2,016 Descending Oakland Center
Thu 11:44:10 AM 38.5125 -118.2836 271° West 291 335 10,500 -1,610 Descending Oakland Center
Thu 11:45:12 AM 38.5156 -118.3653 273° West 257 296 8,900 -1,548 Descending Oakland Center
Thu 11:47:00 AM 38.5333 -118.6167 270° West  Level FlightAware Approximate
Thu 11:54:00 AM 38.5451 -118.6324 270° West  Level Estimated
Thu 11:55:00 AM 38.5451 -118.6324 270° West  Level Estimated
Thu 11:56:00 AM 38.5451 -118.6324 270° West  Level Estimated
Thu 11:57:00 AM 38.5451 -118.6324 270° West  Level Estimated
Thu 11:58:00 AM 38.5451 -118.6324 270° West  Level Estimated
Thu 11:59:00 AM 38.5451 -118.6324 270° West  Level Estimated
Thu 12:00:00 PM 38.5451 -118.6324 270° West  Level Estimated
Thu 12:01:00 PM 38.5451 -118.6324 270° West  Level Estimated
Thu 12:02:00 PM 38.5451 -118.6324 270° West  Level Estimated
Thu 12:03:00 PM 38.5451 -118.6324 270° West  Level Estimated

Login

Don't have an account? Register now (free) for customized features, flight alerts, and more!